Rhonda Lamulle — WDC8441 — position and weather

sailwx.info

Track history (hours):
 
Tides and Currents Weather Stations Pressure Air Temp Water Temp Dewpoint Dewpoint Depression Visibility Wind Speed Wind Dir Waves Ship Positions

Rhonda Lamulle

Owner: Florida Marine, LLC, Mandeville, LA. More information available from US FCC via Universal Licensing System and Coast Guard Vessel Documentation Center.

Last reported at 2016-Dec-01 18:31 UTC. Time now 2016-Dec-04 03:59 UTC.
Position N 30°24' W 086°35'.

Length 13 m; draft 3 m.

Type: Towing. MMSI: 367087104.

Date/timePositionNaut miles runAvg speedWind from/ knotsBaromVisibWave heightAir tempDewpointWater temp
2016-Dec-01 18:31N 30°24' W 086°35'6 6.7
2016-Dec-01 17:33N 30°27' W 086°29'2 2.1
2016-Dec-01 16:33N 30°29' W 086°29'0 0.0
2016-Dec-01 15:33N 30°29' W 086°29'0 0.0
2016-Dec-01 14:33N 30°29' W 086°29'0 0.0
2016-Dec-01 13:33N 30°29' W 086°29'0 0.0
2016-Dec-01 12:33N 30°29' W 086°29'0 0.0
2016-Dec-01 11:33N 30°29' W 086°29'0 0.0
2016-Dec-01 10:04N 30°29' W 086°29'0 0.0
2016-Dec-01 09:33N 30°29' W 086°29'0 0.0
2016-Dec-01 08:33N 30°29' W 086°29'0 0.0
2016-Dec-01 07:33N 30°29' W 086°29'0 0.0
2016-Dec-01 06:33N 30°29' W 086°29'0 0.0
2016-Dec-01 05:33N 30°29' W 086°29'0 0.0
2016-Dec-01 04:33N 30°29' W 086°29'0 0.0
2016-Dec-01 03:33N 30°29' W 086°29'0 0.0
2016-Dec-01 02:33N 30°29' W 086°29'0 0.0
2016-Dec-01 01:33N 30°29' W 086°29'0 0.0
2016-Dec-01 00:33N 30°29' W 086°29'0 0.0
2016-Nov-30 23:33N 30°29' W 086°29'0 0.0
2016-Nov-30 22:33N 30°29' W 086°29'0 0.0
2016-Nov-30 21:33N 30°29' W 086°29'0 0.0
2016-Nov-30 20:33N 30°29' W 086°29'0 0.0
2016-Nov-30 19:33N 30°29' W 086°29'0 0.0
2016-Nov-30 18:33N 30°29' W 086°29'0 0.0
2016-Nov-30 17:33N 30°29' W 086°29'0 0.0
2016-Nov-30 16:33N 30°29' W 086°29'0 0.0
2016-Nov-30 15:33N 30°29' W 086°29'0 0.0
2016-Nov-30 14:33N 30°29' W 086°29'0 0.0
2016-Nov-30 13:33N 30°29' W 086°29'0 0.0
2016-Nov-30 12:33N 30°29' W 086°29'0 0.0
2016-Nov-30 11:33N 30°29' W 086°29'0 0.0
2016-Nov-30 09:33N 30°29' W 086°29'0 0.0
2016-Nov-30 08:33N 30°29' W 086°29'0 0.0
2016-Nov-30 07:33N 30°29' W 086°29'0 0.0
2016-Nov-30 06:33N 30°29' W 086°29'0 0.0
2016-Nov-30 05:33N 30°29' W 086°29'0 0.0
2016-Nov-30 04:33N 30°29' W 086°29'0 0.0
2016-Nov-30 03:33N 30°29' W 086°29'0 0.0
2016-Nov-30 02:33N 30°29' W 086°29'0 0.0
2016-Nov-30 01:33N 30°29' W 086°29'0 0.0
2016-Nov-30 00:33N 30°29' W 086°29'0 0.0
2016-Nov-29 23:33N 30°29' W 086°29'0 0.0
2016-Nov-29 22:33N 30°29' W 086°29'0 0.0
2016-Nov-29 21:33N 30°29' W 086°29'0 0.0
2016-Nov-29 20:33N 30°29' W 086°29'0 0.0
2016-Nov-29 19:33N 30°29' W 086°29'0 0.0
2016-Nov-29 18:33N 30°29' W 086°29'0 0.0
2016-Nov-29 17:33N 30°29' W 086°29'1 0.6
2016-Nov-29 16:33N 30°29' W 086°29'4 4.3
2016-Nov-29 15:33N 30°26' W 086°25'5 4.9
2016-Nov-29 14:33N 30°26' W 086°19'  
2016-Nov-26 14:33N 30°26' W 086°16'6 5.7
2016-Nov-26 13:33N 30°26' W 086°22'6 5.7
2016-Nov-26 12:33N 30°26' W 086°29'5 5.3
2016-Nov-26 11:33N 30°24' W 086°35'8 4.2
2016-Nov-26 09:33N 30°24' W 086°45'5 5.2
2016-Nov-26 08:33N 30°24' W 086°51'  
Track history (hours):
 
Tides and Currents Weather Stations Pressure Air Temp Water Temp Dewpoint Dewpoint Depression Visibility Wind Speed Wind Dir Waves Ship Positions

Rhonda Lamulle

Owner: Florida Marine, LLC, Mandeville, LA. More information available from US FCC via Universal Licensing System and Coast Guard Vessel Documentation Center.

Last reported at 2016-Dec-01 18:31 UTC. Time now 2016-Dec-04 03:59 UTC.
Position N 30°24' W 086°35'.

Length 13 m; draft 3 m.

Type: Towing. MMSI: 367087104.

Date/timePositionNaut miles runAvg speedWind from/ knotsBaromVisibWave heightAir tempDewpointWater temp
2016-Dec-01 18:31N 30°24' W 086°35'6 6.7
2016-Dec-01 17:33N 30°27' W 086°29'2 2.1
2016-Dec-01 16:33N 30°29' W 086°29'0 0.0
2016-Dec-01 15:33N 30°29' W 086°29'0 0.0
2016-Dec-01 14:33N 30°29' W 086°29'0 0.0
2016-Dec-01 13:33N 30°29' W 086°29'0 0.0
2016-Dec-01 12:33N 30°29' W 086°29'0 0.0
2016-Dec-01 11:33N 30°29' W 086°29'0 0.0
2016-Dec-01 10:04N 30°29' W 086°29'0 0.0
2016-Dec-01 09:33N 30°29' W 086°29'0 0.0
2016-Dec-01 08:33N 30°29' W 086°29'0 0.0
2016-Dec-01 07:33N 30°29' W 086°29'0 0.0
2016-Dec-01 06:33N 30°29' W 086°29'0 0.0
2016-Dec-01 05:33N 30°29' W 086°29'0 0.0
2016-Dec-01 04:33N 30°29' W 086°29'0 0.0
2016-Dec-01 03:33N 30°29' W 086°29'0 0.0
2016-Dec-01 02:33N 30°29' W 086°29'0 0.0
2016-Dec-01 01:33N 30°29' W 086°29'0 0.0
2016-Dec-01 00:33N 30°29' W 086°29'0 0.0
2016-Nov-30 23:33N 30°29' W 086°29'0 0.0
2016-Nov-30 22:33N 30°29' W 086°29'0 0.0
2016-Nov-30 21:33N 30°29' W 086°29'0 0.0
2016-Nov-30 20:33N 30°29' W 086°29'0 0.0
2016-Nov-30 19:33N 30°29' W 086°29'0 0.0
2016-Nov-30 18:33N 30°29' W 086°29'0 0.0
2016-Nov-30 17:33N 30°29' W 086°29'0 0.0
2016-Nov-30 16:33N 30°29' W 086°29'0 0.0
2016-Nov-30 15:33N 30°29' W 086°29'0 0.0
2016-Nov-30 14:33N 30°29' W 086°29'0 0.0
2016-Nov-30 13:33N 30°29' W 086°29'0 0.0
2016-Nov-30 12:33N 30°29' W 086°29'0 0.0
2016-Nov-30 11:33N 30°29' W 086°29'0 0.0
2016-Nov-30 09:33N 30°29' W 086°29'0 0.0
2016-Nov-30 08:33N 30°29' W 086°29'0 0.0
2016-Nov-30 07:33N 30°29' W 086°29'0 0.0
2016-Nov-30 06:33N 30°29' W 086°29'0 0.0
2016-Nov-30 05:33N 30°29' W 086°29'0 0.0
2016-Nov-30 04:33N 30°29' W 086°29'0 0.0
2016-Nov-30 03:33N 30°29' W 086°29'0 0.0
2016-Nov-30 02:33N 30°29' W 086°29'0 0.0
2016-Nov-30 01:33N 30°29' W 086°29'0 0.0
2016-Nov-30 00:33N 30°29' W 086°29'0 0.0
2016-Nov-29 23:33N 30°29' W 086°29'0 0.0
2016-Nov-29 22:33N 30°29' W 086°29'0 0.0
2016-Nov-29 21:33N 30°29' W 086°29'0 0.0
2016-Nov-29 20:33N 30°29' W 086°29'0 0.0
2016-Nov-29 19:33N 30°29' W 086°29'0 0.0
2016-Nov-29 18:33N 30°29' W 086°29'0 0.0
2016-Nov-29 17:33N 30°29' W 086°29'1 0.6
2016-Nov-29 16:33N 30°29' W 086°29'4 4.3
2016-Nov-29 15:33N 30°26' W 086°25'5 4.9
2016-Nov-29 14:33N 30°26' W 086°19'  
2016-Nov-26 14:33N 30°26' W 086°16'6 5.7
2016-Nov-26 13:33N 30°26' W 086°22'6 5.7
2016-Nov-26 12:33N 30°26' W 086°29'5 5.3
2016-Nov-26 11:33N 30°24' W 086°35'8 4.2
2016-Nov-26 09:33N 30°24' W 086°45'5 5.2
2016-Nov-26 08:33N 30°24' W 086°51'  

Dump ship's entire track history